createdAt,value
2022-10-17T00:00:11.073Z,89.13
2022-10-17T00:01:11.114Z,89.17
2022-10-17T00:02:11.083Z,89.24
2022-10-17T00:03:11.073Z,89.09
2022-10-17T00:04:11.078Z,89.06
2022-10-17T00:05:11.083Z,88.87
2022-10-17T00:06:12.077Z,88.97
2022-10-17T00:07:11.082Z,89.05
2022-10-17T00:08:11.082Z,89.25
2022-10-17T00:09:11.077Z,89.11
2022-10-17T00:10:11.071Z,89.03
2022-10-17T00:11:18.082Z,88.80
2022-10-17T00:12:11.078Z,88.81
2022-10-17T00:13:12.073Z,88.48
2022-10-17T00:14:11.077Z,88.37
2022-10-17T00:15:11.083Z,88.23
2022-10-17T00:16:11.074Z,88.29
2022-10-17T00:17:11.074Z,88.29
2022-10-17T00:18:11.080Z,88.27
2022-10-17T00:19:11.078Z,88.21
2022-10-17T00:20:11.073Z,88.62
2022-10-17T00:21:18.066Z,88.56
2022-10-17T00:22:11.060Z,88.46
2022-10-17T00:23:11.057Z,88.44
2022-10-17T00:24:11.059Z,88.63
2022-10-17T00:25:11.067Z,89.02
2022-10-17T00:26:11.057Z,88.94
2022-10-17T00:27:11.059Z,89.05
2022-10-17T00:28:13.066Z,89.08
2022-10-17T00:29:11.108Z,88.96
2022-10-17T00:30:14.056Z,88.74
2022-10-17T00:31:11.060Z,88.57
2022-10-17T00:32:11.069Z,88.60
2022-10-17T00:33:11.059Z,88.73
2022-10-17T00:34:11.061Z,88.49
2022-10-17T00:35:11.069Z,88.64
2022-10-17T00:36:17.059Z,88.76
2022-10-17T00:37:11.062Z,88.95
2022-10-17T00:38:11.060Z,88.70
2022-10-17T00:39:11.060Z,88.76
2022-10-17T00:40:11.059Z,88.50
2022-10-17T00:41:11.066Z,88.56
2022-10-17T00:42:14.065Z,88.61
2022-10-17T00:43:17.058Z,88.64
2022-10-17T00:44:19.060Z,88.40
2022-10-17T00:45:19.078Z,88.33
2022-10-17T00:46:11.064Z,88.15
2022-10-17T00:47:13.061Z,88.33
2022-10-17T00:48:11.061Z,88.29
2022-10-17T00:49:11.064Z,88.09
2022-10-17T00:50:11.062Z,88.06
2022-10-17T00:51:11.061Z,87.80
2022-10-17T00:52:15.064Z,87.61
2022-10-17T00:53:11.064Z,87.67
2022-10-17T00:54:11.063Z,87.73
2022-10-17T00:55:14.066Z,87.78
2022-10-17T00:56:11.061Z,87.83
2022-10-17T00:57:11.065Z,87.49
2022-10-17T00:58:11.072Z,87.32
2022-10-17T00:59:11.063Z,87.18
2022-10-17T01:00:11.066Z,87.18
2022-10-17T01:01:11.118Z,87.13
2022-10-17T01:02:14.066Z,87.12
2022-10-17T01:03:11.063Z,87.04
2022-10-17T01:04:11.063Z,87.01
2022-10-17T01:05:11.065Z,87.00
2022-10-17T01:06:11.064Z,86.96
2022-10-17T01:07:11.064Z,86.76
2022-10-17T01:08:11.064Z,86.76
2022-10-17T01:09:11.066Z,86.50
2022-10-17T01:10:11.141Z,86.27
2022-10-17T01:11:22.067Z,86.15
2022-10-17T01:12:19.063Z,86.10
2022-10-17T01:13:19.063Z,86.03
2022-10-17T01:14:19.066Z,85.95
2022-10-17T01:15:25.074Z,85.84
2022-10-17T01:16:19.073Z,85.81
2022-10-17T01:17:19.067Z,85.62
2022-10-17T01:18:19.065Z,85.48
2022-10-17T01:19:19.114Z,85.48
2022-10-17T01:20:19.070Z,85.49
2022-10-17T01:21:19.069Z,85.49
2022-10-17T01:22:19.062Z,85.36
2022-10-17T01:23:19.060Z,85.27
2022-10-17T01:24:19.068Z,85.29
2022-10-17T01:25:19.060Z,85.16
2022-10-17T01:26:19.068Z,85.08
2022-10-17T01:27:22.063Z,85.21
2022-10-17T01:28:19.060Z,85.11
2022-10-17T01:29:21.063Z,84.94
2022-10-17T01:30:19.065Z,85.01
2022-10-17T01:31:15.070Z,84.98
2022-10-17T01:32:22.062Z,84.84
2022-10-17T01:33:17.063Z,84.75
2022-10-17T01:34:20.065Z,84.67
2022-10-17T01:35:19.067Z,84.79
2022-10-17T01:36:22.065Z,84.60
2022-10-17T01:37:18.065Z,84.46
2022-10-17T01:38:18.062Z,84.65
2022-10-17T01:39:20.063Z,84.68
2022-10-17T01:40:19.085Z,84.52
2022-10-17T01:41:19.064Z,84.48
2022-10-17T01:42:22.065Z,84.63
2022-10-17T01:43:22.063Z,84.79
2022-10-17T01:44:17.063Z,84.85
2022-10-17T01:45:16.063Z,84.85
2022-10-17T01:46:19.075Z,84.75
2022-10-17T01:47:13.067Z,84.61
2022-10-17T01:48:17.064Z,84.60
2022-10-17T01:49:11.067Z,84.49
2022-10-17T01:50:18.065Z,84.36
2022-10-17T01:51:15.062Z,84.23
2022-10-17T01:52:17.062Z,84.11
2022-10-17T01:53:18.064Z,84.14
2022-10-17T01:54:17.076Z,84.13
2022-10-17T01:55:15.069Z,84.05
2022-10-17T01:56:12.093Z,84.04
2022-10-17T01:57:14.073Z,84.00
2022-10-17T01:58:20.069Z,84.06
2022-10-17T01:59:19.069Z,84.06
2022-10-17T02:00:13.068Z,84.07
2022-10-17T02:01:11.130Z,84.17
2022-10-17T02:02:11.067Z,84.18
2022-10-17T02:03:13.078Z,84.20
2022-10-17T02:04:11.067Z,84.11
2022-10-17T02:05:11.069Z,84.21
2022-10-17T02:06:11.064Z,84.33
2022-10-17T02:07:11.068Z,84.51
2022-10-17T02:08:11.074Z,84.33
2022-10-17T02:09:21.065Z,84.29
2022-10-17T02:10:19.064Z,84.30
2022-10-17T02:11:21.067Z,84.31
2022-10-17T02:12:19.076Z,84.24
2022-10-17T02:13:19.069Z,84.40
2022-10-17T02:14:19.071Z,84.46
2022-10-17T02:15:21.066Z,84.38
2022-10-17T02:16:19.069Z,84.28
2022-10-17T02:17:24.072Z,84.31
2022-10-17T02:18:19.075Z,84.35
2022-10-17T02:19:22.068Z,84.37
2022-10-17T02:20:22.066Z,84.38
2022-10-17T02:21:18.059Z,84.29
2022-10-17T02:22:21.059Z,84.25
2022-10-17T02:24:19.059Z,84.45
2022-10-17T02:25:20.058Z,84.69
2022-10-17T02:26:19.056Z,84.38
2022-10-17T02:27:19.058Z,84.17
2022-10-17T02:28:20.067Z,84.21
2022-10-17T02:29:19.069Z,84.25
2022-10-17T02:30:19.058Z,84.20
2022-10-17T02:31:19.056Z,84.31
2022-10-17T02:32:19.078Z,84.24
2022-10-17T02:33:19.070Z,84.38
2022-10-17T02:34:19.062Z,84.37
2022-10-17T02:35:12.059Z,84.26
2022-10-17T02:36:16.061Z,84.16
2022-10-17T02:37:11.066Z,84.09
2022-10-17T02:38:12.061Z,84.03
2022-10-17T02:39:11.058Z,83.96
2022-10-17T02:40:11.062Z,83.83
2022-10-17T02:41:14.062Z,83.78
2022-10-17T02:42:12.061Z,83.73
2022-10-17T02:43:11.060Z,83.59
2022-10-17T02:44:11.062Z,83.50
2022-10-17T02:45:11.062Z,83.49
2022-10-17T02:46:11.063Z,83.39
2022-10-17T02:47:19.062Z,83.41
2022-10-17T02:48:19.063Z,83.33
2022-10-17T02:49:18.058Z,83.30
2022-10-17T02:50:11.064Z,83.21
2022-10-17T02:51:19.063Z,83.46
2022-10-17T02:52:14.062Z,83.35
2022-10-17T02:53:15.063Z,83.45
2022-10-17T02:54:20.065Z,83.47
2022-10-17T02:55:18.095Z,83.60
2022-10-17T02:56:18.066Z,83.57
2022-10-17T02:57:18.062Z,83.52
2022-10-17T02:58:20.070Z,83.46
2022-10-17T02:59:12.063Z,83.45
2022-10-17T03:00:12.065Z,83.49
2022-10-17T03:01:11.131Z,83.50
2022-10-17T03:02:11.062Z,83.32
2022-10-17T03:03:19.067Z,83.20
2022-10-17T03:04:14.062Z,83.12
2022-10-17T03:05:11.066Z,83.02
2022-10-17T03:06:11.067Z,82.78
2022-10-17T03:07:11.066Z,82.43
2022-10-17T03:08:11.062Z,82.40
2022-10-17T03:09:11.066Z,82.49
2022-10-17T03:10:11.065Z,82.16
2022-10-17T03:11:11.061Z,81.93
2022-10-17T03:12:11.068Z,81.57
2022-10-17T03:13:11.066Z,81.29
2022-10-17T03:14:11.065Z,81.33
2022-10-17T03:15:11.067Z,80.86
2022-10-17T03:16:11.066Z,80.61
2022-10-17T03:17:11.063Z,80.35
2022-10-17T03:18:11.069Z,80.30
2022-10-17T03:19:11.066Z,80.29
2022-10-17T03:20:11.066Z,80.17
2022-10-17T03:21:11.059Z,80.04
2022-10-17T03:22:11.060Z,79.62
2022-10-17T03:23:11.060Z,79.68
2022-10-17T03:24:11.059Z,79.62
2022-10-17T03:25:11.071Z,79.58
2022-10-17T03:26:11.066Z,79.43
2022-10-17T03:27:11.065Z,79.48
2022-10-17T03:28:11.070Z,79.44
2022-10-17T03:29:11.156Z,79.49
2022-10-17T03:30:11.055Z,79.50
2022-10-17T03:31:11.066Z,79.50
2022-10-17T03:32:11.061Z,79.36
2022-10-17T03:33:11.056Z,79.30
2022-10-17T03:34:11.064Z,79.30
2022-10-17T03:35:14.957Z,79.24
2022-10-17T03:36:11.059Z,79.27
2022-10-17T03:37:11.060Z,79.28
2022-10-17T03:38:11.061Z,79.19
2022-10-17T03:39:11.060Z,79.30
2022-10-17T03:40:11.061Z,79.27
2022-10-17T03:41:11.068Z,79.21
2022-10-17T03:42:11.061Z,79.27
2022-10-17T03:43:11.058Z,79.17
2022-10-17T03:44:11.063Z,79.18
2022-10-17T03:45:11.063Z,79.11
2022-10-17T03:46:11.112Z,79.12
2022-10-17T03:47:13.456Z,79.11
2022-10-17T03:48:11.070Z,79.18
2022-10-17T03:49:11.061Z,79.29
2022-10-17T03:50:11.062Z,79.21
2022-10-17T03:51:11.069Z,79.23
2022-10-17T03:52:13.061Z,79.21
2022-10-17T03:53:11.064Z,79.28
2022-10-17T03:54:11.071Z,79.30
2022-10-17T03:55:11.065Z,79.45
2022-10-17T03:56:17.064Z,79.43
2022-10-17T03:57:11.066Z,79.40
2022-10-17T03:58:11.064Z,79.50
2022-10-17T03:59:13.061Z,79.67
2022-10-17T04:00:11.063Z,80.00
2022-10-17T04:01:11.124Z,80.26
2022-10-17T04:02:11.064Z,80.41
2022-10-17T04:03:16.390Z,80.81
2022-10-17T04:04:13.117Z,81.00
2022-10-17T04:05:11.064Z,81.16
2022-10-17T04:06:12.059Z,81.79
2022-10-17T04:07:11.073Z,82.32
2022-10-17T04:08:11.065Z,82.34
2022-10-17T04:09:11.065Z,82.60
2022-10-17T04:10:11.071Z,82.99
2022-10-17T04:11:13.067Z,82.88
2022-10-17T04:12:11.068Z,83.21
2022-10-17T04:13:11.067Z,83.39
2022-10-17T04:14:11.065Z,83.38
2022-10-17T04:15:11.065Z,84.00
2022-10-17T04:16:12.082Z,84.13
2022-10-17T04:17:11.067Z,84.22
2022-10-17T04:18:11.068Z,84.27
2022-10-17T04:19:13.069Z,84.39
2022-10-17T04:20:11.073Z,84.93
2022-10-17T04:21:11.058Z,84.82
2022-10-17T04:22:12.058Z,84.84
2022-10-17T04:23:11.066Z,84.61
2022-10-17T04:24:12.056Z,85.04
2022-10-17T04:25:11.061Z,85.16
2022-10-17T04:26:11.067Z,85.36
2022-10-17T04:27:11.060Z,85.23
2022-10-17T04:28:11.056Z,85.15
2022-10-17T04:29:11.064Z,85.16
2022-10-17T04:30:11.060Z,85.21
2022-10-17T04:31:12.060Z,85.25
2022-10-17T04:32:11.060Z,85.21
2022-10-17T04:33:11.061Z,85.24
2022-10-17T04:34:11.059Z,85.41
2022-10-17T04:35:11.067Z,85.39
2022-10-17T04:36:12.068Z,85.51
2022-10-17T04:37:11.061Z,85.55
2022-10-17T04:38:11.060Z,85.26
2022-10-17T04:39:11.120Z,85.16
2022-10-17T04:40:11.062Z,84.97
2022-10-17T04:41:12.058Z,85.14
2022-10-17T04:42:11.060Z,85.27
2022-10-17T04:43:11.068Z,84.98
2022-10-17T04:44:11.060Z,84.95
2022-10-17T04:45:11.062Z,84.92
2022-10-17T04:46:11.069Z,84.80
2022-10-17T04:47:11.061Z,84.75
2022-10-17T04:48:11.065Z,84.78
2022-10-17T04:49:11.069Z,84.70
2022-10-17T04:50:11.064Z,84.66
2022-10-17T04:51:12.058Z,84.67
2022-10-17T04:52:11.064Z,84.66
2022-10-17T04:53:11.064Z,84.73
2022-10-17T04:54:11.065Z,84.96
2022-10-17T04:55:11.062Z,84.90
2022-10-17T04:56:15.064Z,84.86
2022-10-17T04:57:11.060Z,85.24
2022-10-17T04:58:11.064Z,85.13
2022-10-17T04:59:11.072Z,85.09
2022-10-17T05:00:11.068Z,85.02
2022-10-17T05:01:11.199Z,84.98
2022-10-17T05:02:11.070Z,85.08
2022-10-17T05:03:11.065Z,85.23
2022-10-17T05:04:11.060Z,85.31
2022-10-17T05:05:11.066Z,85.32
2022-10-17T05:06:15.071Z,85.37
2022-10-17T05:07:11.063Z,85.65
2022-10-17T05:08:11.064Z,85.53
2022-10-17T05:09:11.073Z,85.52
2022-10-17T05:10:11.066Z,85.43
2022-10-17T05:11:21.066Z,85.88
2022-10-17T05:12:11.071Z,85.95
2022-10-17T05:13:11.074Z,85.83
2022-10-17T05:14:11.062Z,85.75
2022-10-17T05:15:11.071Z,85.62
2022-10-17T05:16:11.073Z,85.62
2022-10-17T05:17:11.063Z,85.63
2022-10-17T05:18:11.066Z,85.53
2022-10-17T05:19:11.074Z,85.51
2022-10-17T05:20:11.066Z,85.69
2022-10-17T05:21:11.054Z,85.73
2022-10-17T05:22:11.065Z,85.64
2022-10-17T05:23:11.059Z,85.63
2022-10-17T05:24:13.060Z,85.56
2022-10-17T05:25:11.062Z,85.54
2022-10-17T05:26:11.060Z,85.44
2022-10-17T05:27:11.056Z,85.15
2022-10-17T05:28:11.061Z,84.95
2022-10-17T05:29:11.137Z,84.88
2022-10-17T05:30:11.058Z,84.72
2022-10-17T05:31:11.059Z,84.57
2022-10-17T05:32:11.061Z,84.48
2022-10-17T05:33:11.060Z,84.21
2022-10-17T05:34:13.186Z,84.21
2022-10-17T05:35:11.062Z,84.02
2022-10-17T05:36:11.058Z,83.89
2022-10-17T05:37:11.062Z,83.83
2022-10-17T05:38:11.067Z,83.77
2022-10-17T05:39:11.067Z,83.69
2022-10-17T05:40:11.061Z,83.63
2022-10-17T05:41:11.069Z,83.51
2022-10-17T05:42:11.058Z,83.51
2022-10-17T05:43:11.063Z,83.63
2022-10-17T05:44:11.068Z,83.65
2022-10-17T05:45:11.059Z,83.76
2022-10-17T05:46:11.061Z,83.56
2022-10-17T05:47:11.070Z,83.42
2022-10-17T05:48:11.061Z,83.27
2022-10-17T05:49:19.758Z,83.16
2022-10-17T05:50:13.145Z,83.12
2022-10-17T05:51:11.067Z,82.97
2022-10-17T05:52:11.060Z,82.83
2022-10-17T05:53:11.064Z,82.79
2022-10-17T05:54:11.070Z,82.74
2022-10-17T05:55:11.062Z,82.76
2022-10-17T05:56:11.063Z,82.68
2022-10-17T05:57:11.070Z,82.49
2022-10-17T05:58:17.722Z,82.40
2022-10-17T05:59:13.084Z,82.29
2022-10-17T06:00:11.062Z,82.18
2022-10-17T06:01:12.769Z,81.96
2022-10-17T06:02:12.149Z,81.88
2022-10-17T06:03:13.064Z,81.79
2022-10-17T06:04:11.065Z,81.72
2022-10-17T06:05:11.066Z,81.55
2022-10-17T06:06:11.085Z,81.44
2022-10-17T06:07:11.067Z,81.31
2022-10-17T06:08:11.065Z,81.26
2022-10-17T06:09:11.062Z,81.23
2022-10-17T06:10:11.068Z,81.23
2022-10-17T06:11:11.066Z,81.16
2022-10-17T06:12:11.064Z,80.94
2022-10-17T06:13:11.071Z,80.89
2022-10-17T06:14:11.066Z,80.75
2022-10-17T06:15:11.065Z,80.68
2022-10-17T06:16:11.066Z,80.53
2022-10-17T06:17:15.548Z,80.51
2022-10-17T06:18:13.071Z,80.42
2022-10-17T06:19:11.075Z,80.41
2022-10-17T06:20:11.073Z,80.28
2022-10-17T06:21:11.059Z,80.23
2022-10-17T06:22:11.059Z,80.19
2022-10-17T06:23:11.066Z,80.12
2022-10-17T06:24:11.059Z,80.01
2022-10-17T06:25:11.055Z,79.89
2022-10-17T06:26:11.064Z,79.88
2022-10-17T06:27:12.116Z,79.78
2022-10-17T06:28:11.056Z,79.78
2022-10-17T06:29:11.146Z,79.66
2022-10-17T06:30:11.066Z,79.57
2022-10-17T06:31:13.057Z,79.50
2022-10-17T06:32:14.112Z,79.35
2022-10-17T06:33:11.067Z,79.34
2022-10-17T06:34:11.059Z,79.39
2022-10-17T06:35:11.063Z,79.26
2022-10-17T06:36:12.068Z,79.17
2022-10-17T06:37:11.061Z,79.29
2022-10-17T06:38:11.060Z,79.22
2022-10-17T06:39:11.063Z,79.26
2022-10-17T06:40:11.062Z,79.37
2022-10-17T06:41:14.058Z,79.21
2022-10-17T06:42:11.063Z,79.00
2022-10-17T06:43:11.069Z,79.08
2022-10-17T06:44:14.060Z,79.21
2022-10-17T06:45:11.059Z,79.19
2022-10-17T06:46:11.063Z,79.16
2022-10-17T06:47:11.063Z,79.21
2022-10-17T06:48:11.062Z,79.32
2022-10-17T06:49:11.063Z,79.27
2022-10-17T06:50:11.062Z,79.17
2022-10-17T06:51:11.062Z,79.56
2022-10-17T06:52:11.070Z,79.56
2022-10-17T06:53:11.091Z,79.62
2022-10-17T06:54:11.073Z,79.62
2022-10-17T06:55:11.065Z,79.63
2022-10-17T06:56:11.065Z,79.51
2022-10-17T06:57:11.064Z,79.68
2022-10-17T06:58:11.063Z,79.88
2022-10-17T06:59:11.063Z,79.82
2022-10-17T07:00:11.065Z,79.72
2022-10-17T07:01:13.073Z,79.57
2022-10-17T07:02:11.065Z,79.49
2022-10-17T07:03:11.074Z,79.59
2022-10-17T07:04:11.065Z,79.71
2022-10-17T07:05:11.060Z,79.71
2022-10-17T07:06:11.067Z,79.61
2022-10-17T07:07:11.070Z,79.62
2022-10-17T07:08:11.065Z,79.53
2022-10-17T07:09:11.065Z,79.79
2022-10-17T07:10:12.066Z,79.70
2022-10-17T07:11:11.064Z,79.75
2022-10-17T07:12:12.064Z,79.79
2022-10-17T07:13:11.073Z,79.74
2022-10-17T07:14:11.066Z,79.76
2022-10-17T07:15:11.067Z,79.81
2022-10-17T07:16:11.073Z,79.88
2022-10-17T07:17:11.064Z,79.89
2022-10-17T07:18:11.065Z,79.78
2022-10-17T07:19:11.075Z,79.74
2022-10-17T07:20:11.067Z,79.66
2022-10-17T07:21:11.053Z,79.74
2022-10-17T07:22:11.060Z,79.66
2022-10-17T07:23:11.063Z,79.62
2022-10-17T07:24:11.057Z,79.74
2022-10-17T07:25:11.057Z,79.61
2022-10-17T07:26:16.058Z,79.56
2022-10-17T07:27:11.060Z,79.44
2022-10-17T07:28:11.058Z,79.42
2022-10-17T07:29:11.066Z,79.37
2022-10-17T07:30:11.057Z,79.45
2022-10-17T07:31:11.059Z,79.53
2022-10-17T07:32:12.063Z,79.42
2022-10-17T07:33:11.061Z,79.40
2022-10-17T07:34:11.063Z,79.43
2022-10-17T07:35:11.061Z,79.38
2022-10-17T07:36:11.060Z,79.38
2022-10-17T07:37:11.061Z,79.35
2022-10-17T07:38:11.062Z,79.34
2022-10-17T07:39:11.068Z,79.33
2022-10-17T07:40:11.061Z,79.32
2022-10-17T07:41:11.060Z,79.44
2022-10-17T07:42:11.068Z,79.19
2022-10-17T07:43:11.062Z,79.21
2022-10-17T07:44:11.057Z,79.33
2022-10-17T07:45:11.076Z,79.42
2022-10-17T07:46:11.061Z,79.35
2022-10-17T07:47:11.056Z,79.37
2022-10-17T07:48:11.064Z,79.41
2022-10-17T07:49:11.064Z,79.40
2022-10-17T07:50:11.062Z,79.55
2022-10-17T07:51:11.061Z,79.57
2022-10-17T07:52:13.063Z,79.91
2022-10-17T07:53:11.061Z,79.87
2022-10-17T07:54:11.060Z,79.79
2022-10-17T07:55:11.064Z,79.69
2022-10-17T07:56:11.064Z,79.74
2022-10-17T07:57:11.062Z,79.78
2022-10-17T07:58:11.064Z,79.69
2022-10-17T07:59:11.063Z,79.62
2022-10-17T08:00:11.064Z,79.58
2022-10-17T08:01:14.866Z,79.55
2022-10-17T08:02:17.062Z,79.60
2022-10-17T08:03:11.062Z,79.77
2022-10-17T08:04:11.068Z,79.95
2022-10-17T08:05:11.066Z,80.06
2022-10-17T08:06:11.059Z,80.06
2022-10-17T08:07:18.611Z,79.93
2022-10-17T08:08:13.137Z,80.03
2022-10-17T08:09:11.062Z,80.13
2022-10-17T08:10:12.066Z,80.11
2022-10-17T08:11:11.072Z,80.00
2022-10-17T08:12:11.063Z,80.02
2022-10-17T08:13:11.060Z,79.95
2022-10-17T08:14:11.066Z,80.16
2022-10-17T08:15:11.066Z,80.02
2022-10-17T08:16:11.068Z,80.00
2022-10-17T08:17:11.063Z,79.95
2022-10-17T08:18:11.066Z,79.83
2022-10-17T08:19:11.065Z,79.77
2022-10-17T08:20:11.066Z,79.74
2022-10-17T08:21:11.069Z,79.70
2022-10-17T08:22:11.056Z,79.65
2022-10-17T08:23:11.060Z,79.62
2022-10-17T08:24:11.066Z,79.50
2022-10-17T08:25:11.059Z,79.69
2022-10-17T08:26:11.070Z,79.81
2022-10-17T08:27:15.068Z,79.77
2022-10-17T08:28:11.061Z,79.72
2022-10-17T08:29:14.074Z,79.74
2022-10-17T08:30:11.060Z,79.74
2022-10-17T08:31:13.060Z,79.67
2022-10-17T08:32:11.062Z,79.88
2022-10-17T08:33:11.063Z,79.97
2022-10-17T08:34:11.062Z,79.93
2022-10-17T08:35:11.068Z,79.80
2022-10-17T08:36:12.057Z,79.74
2022-10-17T08:38:13.323Z,79.57
2022-10-17T08:39:11.071Z,79.45
2022-10-17T08:40:19.063Z,79.23
2022-10-17T08:41:19.070Z,79.00
2022-10-17T08:42:19.062Z,78.78
2022-10-17T08:43:21.079Z,78.74
2022-10-17T08:44:19.057Z,78.49
2022-10-17T08:45:19.060Z,78.40
2022-10-17T08:46:11.107Z,77.92
2022-10-17T08:47:16.063Z,77.89
2022-10-17T08:48:18.059Z,77.47
2022-10-17T08:49:21.062Z,77.09
2022-10-17T08:50:21.064Z,77.06
2022-10-17T08:51:19.070Z,76.72
2022-10-17T08:52:20.062Z,76.63
2022-10-17T08:53:21.061Z,76.22
2022-10-17T08:54:19.060Z,76.42
2022-10-17T08:55:21.072Z,75.87
2022-10-17T08:56:19.965Z,75.78
2022-10-17T08:57:18.095Z,75.75
2022-10-17T08:58:15.071Z,75.39
2022-10-17T08:59:14.064Z,74.95
2022-10-17T09:00:18.059Z,74.83
2022-10-17T09:01:21.062Z,74.66
2022-10-17T09:02:19.075Z,74.53
2022-10-17T09:03:19.136Z,74.54
2022-10-17T09:04:19.127Z,74.41
2022-10-17T09:05:22.527Z,74.23
2022-10-17T09:06:20.083Z,74.19
2022-10-17T09:07:21.065Z,74.11
2022-10-17T09:08:21.112Z,73.68
2022-10-17T09:09:19.074Z,73.75
2022-10-17T09:10:19.078Z,73.36
2022-10-17T09:11:19.066Z,72.96
2022-10-17T09:12:23.063Z,72.58
2022-10-17T09:13:19.067Z,72.52
2022-10-17T09:14:19.077Z,72.22
2022-10-17T09:15:19.065Z,72.20
2022-10-17T09:16:19.066Z,72.00
2022-10-17T09:17:19.068Z,71.57
2022-10-17T09:18:23.069Z,71.81
2022-10-17T09:19:21.090Z,71.52
2022-10-17T09:20:19.067Z,71.45
2022-10-17T09:21:18.073Z,71.45
2022-10-17T09:22:20.058Z,71.16
2022-10-17T09:23:19.060Z,71.03
2022-10-17T09:24:19.060Z,70.71
2022-10-17T09:25:14.067Z,70.51
2022-10-17T09:26:12.062Z,70.34
2022-10-17T09:27:19.054Z,70.09
2022-10-17T09:28:19.059Z,70.01
2022-10-17T09:29:21.071Z,69.79
2022-10-17T09:30:40.188Z,69.47
2022-10-17T09:31:21.848Z,69.32
2022-10-17T09:32:17.058Z,69.00
2022-10-17T09:33:34.489Z,68.67
2022-10-17T09:34:13.068Z,68.71
2022-10-17T09:35:15.071Z,68.88
2022-10-17T09:36:16.064Z,68.50
2022-10-17T09:37:14.063Z,68.29
2022-10-17T09:38:19.062Z,68.33
2022-10-17T09:39:18.069Z,68.33
2022-10-17T09:40:17.064Z,68.12
2022-10-17T09:41:39.669Z,68.30
2022-10-17T09:42:17.090Z,68.48
2022-10-17T09:43:13.072Z,68.50
2022-10-17T09:44:17.064Z,68.23
2022-10-17T09:45:18.059Z,68.17
2022-10-17T09:46:19.063Z,68.30
2022-10-17T09:47:19.068Z,68.09
2022-10-17T09:48:21.063Z,68.18
2022-10-17T09:49:20.059Z,68.16
2022-10-17T09:50:21.065Z,68.28
2022-10-17T09:51:21.810Z,68.42
2022-10-17T09:52:18.088Z,68.36
2022-10-17T09:53:19.064Z,68.44
2022-10-17T09:54:19.062Z,68.62
2022-10-17T09:55:19.065Z,68.47
2022-10-17T09:56:14.062Z,68.46
2022-10-17T09:57:11.063Z,68.76
2022-10-17T09:58:11.082Z,68.60
2022-10-17T09:59:13.872Z,68.84
2022-10-17T10:00:19.069Z,68.33
2022-10-17T10:01:23.961Z,68.92
2022-10-17T10:02:17.063Z,69.23
2022-10-17T10:03:16.072Z,69.52
2022-10-17T10:04:14.064Z,69.19
2022-10-17T10:05:19.078Z,69.11
2022-10-17T10:06:17.071Z,68.87
2022-10-17T10:07:13.063Z,68.72
2022-10-17T10:08:15.111Z,68.58
2022-10-17T10:10:19.066Z,68.29
2022-10-17T10:11:13.831Z,68.06
2022-10-17T10:12:19.066Z,67.84
2022-10-17T10:13:17.069Z,67.81
2022-10-17T10:14:17.067Z,67.58
2022-10-17T10:15:19.065Z,67.29
2022-10-17T10:16:18.121Z,67.10
2022-10-17T10:17:19.067Z,67.06
2022-10-17T10:18:19.140Z,66.57
2022-10-17T10:19:19.068Z,66.64
2022-10-17T10:20:19.069Z,66.39
2022-10-17T10:21:20.062Z,65.96
2022-10-17T10:22:17.072Z,65.43
2022-10-17T10:23:14.059Z,64.88
2022-10-17T10:24:14.059Z,64.50
2022-10-17T10:25:17.066Z,64.58
2022-10-17T10:26:21.279Z,64.28
2022-10-17T10:27:14.058Z,64.01
2022-10-17T10:28:13.065Z,63.63
2022-10-17T10:29:21.059Z,63.13
2022-10-17T10:30:17.059Z,63.19
2022-10-17T10:31:11.068Z,62.86
2022-10-17T10:32:21.066Z,63.01
2022-10-17T10:33:13.067Z,62.57
2022-10-17T10:34:18.060Z,62.49
2022-10-17T10:35:19.059Z,62.40
2022-10-17T10:36:11.060Z,62.47
2022-10-17T10:37:19.062Z,62.50
2022-10-17T10:38:16.062Z,62.50
2022-10-17T10:39:19.056Z,62.39
2022-10-17T10:40:19.061Z,62.55
2022-10-17T10:41:11.065Z,62.03
2022-10-17T10:42:21.064Z,61.60
2022-10-17T10:43:19.060Z,61.67
2022-10-17T10:44:16.058Z,61.20
2022-10-17T10:45:43.284Z,61.22
2022-10-17T10:46:22.374Z,60.98
2022-10-17T10:47:15.065Z,60.90
2022-10-17T10:48:19.060Z,60.39
2022-10-17T10:49:19.065Z,60.02
2022-10-17T10:50:19.065Z,59.86
2022-10-17T10:51:16.070Z,59.69
2022-10-17T10:52:15.063Z,59.82
2022-10-17T10:53:19.058Z,59.57
2022-10-17T10:54:19.062Z,59.41
2022-10-17T10:55:19.071Z,58.99
2022-10-17T10:56:16.064Z,59.14
2022-10-17T10:57:17.063Z,59.13
2022-10-17T10:58:19.064Z,58.53
2022-10-17T10:59:19.066Z,58.59
2022-10-17T11:00:16.065Z,58.52
2022-10-17T11:01:18.136Z,58.09
2022-10-17T11:02:17.060Z,57.80
2022-10-17T11:03:21.062Z,58.04
2022-10-17T11:04:19.072Z,57.86
2022-10-17T11:05:20.077Z,58.13
2022-10-17T11:06:20.071Z,58.17
2022-10-17T11:07:20.073Z,58.03
2022-10-17T11:08:19.063Z,57.66
2022-10-17T11:09:19.065Z,57.67
2022-10-17T11:10:21.069Z,57.39
2022-10-17T11:11:19.075Z,57.37
2022-10-17T11:12:20.078Z,57.50
2022-10-17T11:13:19.073Z,57.36
2022-10-17T11:14:19.063Z,57.36
2022-10-17T11:15:19.064Z,57.51
2022-10-17T11:16:21.075Z,57.28
2022-10-17T11:17:19.073Z,57.35
2022-10-17T11:18:17.064Z,57.00
2022-10-17T11:19:19.070Z,56.73
2022-10-17T11:20:19.069Z,56.99
2022-10-17T11:21:20.068Z,56.78
2022-10-17T11:22:19.057Z,56.84
2022-10-17T11:23:16.056Z,57.09
2022-10-17T11:24:21.057Z,56.87
2022-10-17T11:25:19.059Z,56.90
2022-10-17T11:26:19.062Z,56.82
2022-10-17T11:27:11.069Z,56.69
2022-10-17T11:28:18.056Z,57.11
2022-10-17T11:29:12.056Z,57.28
2022-10-17T11:30:16.061Z,57.08
2022-10-17T11:31:15.069Z,56.88
2022-10-17T11:32:20.080Z,56.73
2022-10-17T11:33:12.073Z,56.81
2022-10-17T11:34:18.063Z,56.81
2022-10-17T11:35:20.071Z,56.60
2022-10-17T11:36:11.061Z,56.38
2022-10-17T11:37:19.145Z,56.10
2022-10-17T11:38:21.108Z,55.71
2022-10-17T11:39:17.093Z,55.27
2022-10-17T11:40:21.916Z,55.12
2022-10-17T11:41:15.086Z,55.09
2022-10-17T11:42:17.069Z,55.00
2022-10-17T11:43:19.073Z,55.44
2022-10-17T11:44:19.062Z,55.78
2022-10-17T11:45:17.061Z,55.90
2022-10-17T11:46:22.063Z,56.36
2022-10-17T11:47:19.122Z,56.68
2022-10-17T11:48:20.067Z,56.67
2022-10-17T11:49:20.104Z,56.89
2022-10-17T11:52:44.027Z,56.80
2022-10-17T11:53:18.067Z,56.53
2022-10-17T11:54:18.070Z,56.45
2022-10-17T11:55:17.063Z,56.64
2022-10-17T11:56:12.062Z,56.36
2022-10-17T11:57:21.063Z,56.39
2022-10-17T11:58:19.130Z,56.46
2022-10-17T11:59:21.066Z,56.47
2022-10-17T12:00:19.069Z,56.50
2022-10-17T12:01:21.063Z,56.59
2022-10-17T12:02:19.067Z,56.50
2022-10-17T12:03:19.066Z,56.32
2022-10-17T12:04:21.131Z,56.07
2022-10-17T12:05:19.067Z,55.86
2022-10-17T12:06:19.064Z,55.71
2022-10-17T12:07:21.066Z,56.17
2022-10-17T12:08:19.069Z,56.12
2022-10-17T12:09:19.067Z,56.08
2022-10-17T12:10:21.067Z,56.18
2022-10-17T12:11:19.064Z,56.19
2022-10-17T12:12:11.071Z,56.35
2022-10-17T12:13:19.081Z,56.65
2022-10-17T12:14:21.068Z,56.56
2022-10-17T12:15:19.064Z,56.39
2022-10-17T12:16:21.069Z,56.64
2022-10-17T12:17:19.110Z,56.56
2022-10-17T12:18:16.448Z,56.37
2022-10-17T12:19:23.103Z,56.58
2022-10-17T12:20:19.065Z,56.30
2022-10-17T12:21:11.110Z,56.38
2022-10-17T12:22:19.059Z,56.48
2022-10-17T12:23:21.066Z,56.45
2022-10-17T12:24:19.058Z,56.72
2022-10-17T12:25:19.058Z,56.61
2022-10-17T12:26:11.059Z,56.43
2022-10-17T12:27:19.060Z,56.29
2022-10-17T12:28:20.059Z,56.41
2022-10-17T12:29:19.058Z,56.22
2022-10-17T12:30:16.055Z,56.03
2022-10-17T12:31:21.057Z,56.20
2022-10-17T12:32:13.063Z,56.19
2022-10-17T12:33:19.062Z,56.03
2022-10-17T12:34:17.060Z,55.95
2022-10-17T12:35:19.061Z,56.02
2022-10-17T12:36:21.068Z,56.04
2022-10-17T12:37:12.068Z,55.89
2022-10-17T12:38:18.061Z,55.53
2022-10-17T12:39:23.063Z,55.33
2022-10-17T12:40:19.059Z,55.31
2022-10-17T12:41:11.583Z,55.24
2022-10-17T12:42:19.058Z,54.61
2022-10-17T12:43:19.063Z,54.82
2022-10-17T12:44:19.060Z,54.17
2022-10-17T12:45:19.075Z,54.06
2022-10-17T12:46:11.062Z,54.27
2022-10-17T12:47:21.184Z,54.10
2022-10-17T12:48:12.058Z,54.12
2022-10-17T12:49:19.070Z,53.96
2022-10-17T12:50:21.063Z,53.65
2022-10-17T12:51:34.826Z,53.70
2022-10-17T12:52:22.097Z,53.26
2022-10-17T12:53:18.468Z,52.82
2022-10-17T12:54:17.061Z,52.75
2022-10-17T12:55:17.097Z,52.66
2022-10-17T12:56:11.068Z,52.57
2022-10-17T12:57:19.065Z,52.17